Latest Coastal Weather Observations for Swan Island

IDT60701

Issued at 1:51 am EST Sunday 26 April 2015 (issued every 10 minutes, with the page automatically refreshed every 10 minutes)

About coastal observations | Map of coastal stations | Coastal observations for TAS | Marine services | Other Formats
Station Details ID: 092123 Name: SWAN ISLAND Lat: -40.73 Lon: 148.12 Height: 15.0 m
Data from the previous 72 hours. | See also: Recent months at Swan Island
Date/Time
EST
Temp

°C
Wind Pressure Rain
since 9am
mm
Weather Cloud Vis
km
Sea
Height
m
Swell
Dir
 
Speed
knots
Gust
knots
hPa Trend Height
m
Period
s
Dir
26/01:30am 12.5 SSE 14 17 1011.2 - 0.0 - - - - - - -
26/01:00am 12.8 SSE 13 16 1011.2 - 0.0 - - - - - - -
26/12:30am 12.7 SSE 13 18 1011.3 - 0.0 - - - - - - -
26/12:00am 12.9 SSE 12 16 1011.3 - 0.0 - - - - - - -
 
Date/Time
EST
Temp

°C
Wind Pressure Rain
since 9am
mm
Weather Cloud Vis
km
Sea
Height
m
Swell
Dir
 
Speed
knots
Gust
knots
hPa Trend Height
m
Period
s
Dir
25/11:30pm 13.2 SSE 13 18 1011.2 - 0.0 - - - - - - -
25/11:00pm 13.0 SSE 13 18 1011.4 - 0.0 - - - - - - -
25/10:30pm 13.2 SSE 15 18 1011.5 - 0.0 - - - - - - -
25/10:00pm 13.2 SSE 14 19 1011.5 - 0.0 - - - - - - -
25/09:30pm 13.1 SSE 14 19 1011.3 - 0.0 - - - - - - -
25/09:00pm 13.1 SSE 16 21 1011.4 - 0.0 - - - - - - -
25/08:30pm 13.5 SSE 17 21 1011.1 - 0.0 - - - - - - -
25/08:00pm 13.7 SSE 17 24 1011.0 - 0.0 - - - - - - -
25/07:30pm 14.2 SSE 18 23 1010.7 - 0.0 - - - - - - -
25/07:00pm 14.2 SE 18 25 1010.6 - 0.0 - - - - - - -
25/06:30pm 14.2 SE 21 27 1010.3 - 0.0 - - - - - - -
25/06:00pm 14.2 SE 21 27 1009.8 - 0.0 - - - - - - -
25/05:30pm 14.2 SE 21 28 1009.4 - 0.0 - - - - - - -
25/05:00pm 14.1 SE 21 27 1009.0 - 0.0 - - - - - - -
25/04:30pm 14.2 SSE 20 25 1009.0 - 0.0 - - - - - - -
25/04:00pm 14.2 SSE 20 26 1009.0 - 0.0 - - - - - - -
25/03:30pm 14.1 SSE 19 24 1008.8 - 0.0 - - - - - - -
25/03:00pm 14.4 SE 19 25 1008.6 - 0.0 - - - - - - -
25/02:30pm 14.7 SE 20 24 1008.4 - 0.0 - - - - - - -
25/02:00pm 14.8 SE 18 24 1008.3 - 0.0 - - - - - - -
25/01:30pm 14.9 SE 20 24 1008.0 - 0.0 - - - - - - -
25/01:00pm 15.2 SE 17 22 1008.0 - 0.0 - - - - - - -
25/12:30pm 15.0 SE 17 22 1007.9 - 0.0 - - - - - - -
25/12:00pm 15.0 SSE 18 24 1008.0 - 0.0 - - - - - - -
25/11:30am 15.1 SE 18 23 1007.9 - 0.0 - - - - - - -
25/11:00am 15.2 SE 17 22 1008.0 - 0.0 - - - - - - -
25/10:30am 14.9 SE 17 22 1007.9 - 0.0 - - - - - - -
25/10:00am 15.3 SSE 15 19 1007.7 - 0.0 - - - - - - -
25/09:30am 14.3 SSE 16 21 1007.5 - 0.0 - - - - - - -
25/09:00am 14.1 SE 18 21 1007.3 - 17.4 - - - - - - -
25/08:30am 14.3 SE 17 22 1007.1 - 17.4 - - - - - - -
25/08:00am 14.2 SSE 11 15 1006.9 - 17.4 - - - - - - -
25/07:30am 14.1 SSE 10 13 1006.5 - 17.4 - - - - - - -
25/07:00am 14.2 SSE 9 11 1006.1 - 17.4 - - - - - - -
25/06:30am 14.3 SE 10 13 1005.7 - 17.4 - - - - - - -
25/06:00am 14.2 SE 8 12 1005.3 - 17.4 Recent precip. - - - - - -
25/05:30am 14.1 ESE 6 8 1005.1 - 17.4 - - - - - - -
25/05:00am 14.1 SE 5 7 1005.0 - 17.2 - - - - - - -
25/04:30am 13.8 ESE 5 6 1004.8 - 17.2 - - - - - - -
25/04:00am 13.7 ESE 4 5 1004.6 - 17.2 - - - - - - -
25/03:30am 13.6 ESE 3 5 1004.5 - 17.2 - - - - - - -
25/03:00am 13.4 E 2 3 1004.2 - 17.2 - - - - - - -
25/02:30am 13.2 S 2 3 1004.1 - 17.2 - - - - - - -
25/02:00am 13.2 S 3 6 1004.2 - 17.2 - - - - - - -
25/01:30am 13.2 SSE 7 10 1004.1 - 17.0 - - - - - - -
25/01:00am 13.5 S 8 12 1004.0 - 16.4 - - - - - - -
25/12:30am 13.6 SSE 5 8 1003.8 - 16.2 - - - - - - -
25/12:00am 13.4 SSW 3 5 1003.5 - 16.2 - - - - - - -
 
Date/Time
EST
Temp

°C
Wind Pressure Rain
since 9am
mm
Weather Cloud Vis
km
Sea
Height
m
Swell
Dir
 
Speed
knots
Gust
knots
hPa Trend Height
m
Period
s
Dir
24/11:30pm 13.4 SW 3 4 1003.3 - 16.2 - - - - - - -
24/11:00pm 13.6 S 5 7 1003.0 - 16.2 - - - - - - -
24/10:30pm 13.5 S 6 9 1002.8 - 16.2 - - - - - - -
24/10:00pm 13.7 S 8 11 1002.5 - 16.2 - - - - - - -
24/09:30pm 14.2 SSE 12 16 1002.3 - 16.2 - - - - - - -
24/09:00pm 14.2 SE 14 17 1001.8 - 16.2 Recent precip. - - - - - -
24/08:30pm 14.1 ESE 17 22 1001.2 - 16.2 - - - - - - -
24/08:24pm 14.2 SE 17 22 1001.0 - 16.2 - - - - - - -
24/08:00pm 14.5 S 8 11 1002.0 - 15.6 - - - - - - -
24/07:30pm 15.3 E 10 11 1001.6 - 14.6 - - - - - - -
24/07:00pm 15.3 ENE 6 7 1001.8 - 14.4 - - - - - - -
24/06:30pm 15.1 ESE 7 9 1001.4 - 14.2 - - - - - - -
24/06:00pm 15.0 ESE 8 9 1001.3 - 14.0 Rain - - - - - -
24/05:30pm 14.9 ESE 8 9 1001.1 - 13.6 - - - - - - -
24/05:00pm 15.0 ESE 8 9 1001.1 - 13.4 - - - - - - -
24/04:30pm 14.9 ESE 8 10 1000.9 - 13.4 - - - - - - -
24/04:00pm 14.9 SE 8 10 1001.0 - 11.4 - - - - - - -
24/03:30pm 14.8 SE 8 10 1001.1 - 11.4 - - - - - - -
24/03:00pm 14.9 SE 8 11 1001.1 - 11.4 Recent precip. - - - - - -
24/02:30pm 14.8 SE 8 10 1001.4 - 11.2 - - - - - - -
24/02:00pm 14.8 SE 7 10 1001.7 - 11.0 - - - - - - -
24/01:30pm 14.7 SE 8 9 1001.7 - 11.0 - - - - - - -
24/01:00pm 14.8 SE 7 9 1002.0 - 10.0 - - - - - - -
24/12:30pm 14.8 SE 8 9 1002.3 - 8.6 - - - - - - -
24/12:00pm 14.8 SSE 7 9 1002.7 - 4.8 Rain - - - - - -
24/11:30am 14.7 SSE 7 8 1003.1 - 4.4 - - - - - - -
24/11:00am 14.8 SSE 7 8 1003.5 - 2.6 - - - - - - -
24/10:30am 14.6 SSE 5 7 1003.7 - 2.0 - - - - - - -
24/10:00am 14.3 SSE 6 7 1003.9 - 1.6 - - - - - - -
24/09:30am 14.1 S 6 7 1004.2 - 0.8 - - - - - - -
24/09:00am 14.1 SSE 6 8 1004.4 - 3.8 Rain - - - - - -
24/08:30am 13.9 S 6 8 1004.6 - 3.0 - - - - - - -
24/08:00am 13.9 SSE 6 8 1004.8 - 1.2 - - - - - - -
24/07:30am 13.9 SSE 7 10 1004.8 - 0.8 - - - - - - -
24/07:00am 13.9 SSE 8 11 1004.8 - 0.4 - - - - - - -
24/06:30am 13.9 SSE 9 11 1004.9 - 0.4 - - - - - - -
24/06:00am 14.0 SSE 8 10 1005.1 - 0.2 - - - - - - -
24/05:30am 14.1 SSE 9 11 1005.3 - 0.2 - - - - - - -
24/05:00am 14.1 SSE 9 11 1005.5 - 0.2 - - - - - - -
24/04:30am 14.1 SSE 8 10 1005.9 - 0.2 - - - - - - -
24/04:00am 14.0 SSE 7 10 1006.0 - 0.2 - - - - - - -
24/03:30am 13.9 SSE 9 11 1006.2 - 0.2 - - - - - - -
24/03:00am 13.7 SSE 8 10 1006.8 - 0.2 - - - - - - -
24/02:30am 13.5 SSE 6 8 1007.1 - 0.2 - - - - - - -
24/02:00am 13.3 S 4 5 1007.8 - 0.2 - - - - - - -
24/01:30am 13.1 S 5 7 1008.1 - 0.2 - - - - - - -
24/01:00am 13.3 S 7 9 1008.6 - 0.0 - - - - - - -
24/12:30am 13.4 S 6 9 1009.1 - 0.0 - - - - - - -
24/12:00am 13.6 SSW 5 8 1009.8 - 0.0 - - - - - - -
 
Date/Time
EST
Temp

°C
Wind Pressure Rain
since 9am
mm
Weather Cloud Vis
km
Sea
Height
m
Swell
Dir
 
Speed
knots
Gust
knots
hPa Trend Height
m
Period
s
Dir
23/11:30pm 14.0 S 6 9 1010.3 - 0.0 - - - - - - -
23/11:00pm 14.0 SSE 10 13 1010.5 - 0.0 - - - - - - -
23/10:30pm 14.2 SSE 12 16 1010.9 - 0.0 - - - - - - -
23/10:00pm 14.0 SSE 13 19 1011.4 - 0.0 - - - - - - -
23/09:30pm 14.1 SSE 14 18 1011.8 - 0.0 - - - - - - -
23/09:00pm 14.3 SSE 14 19 1012.1 - 0.0 - - - - - - -
23/08:30pm 14.4 SSE 14 17 1012.5 - 0.0 - - - - - - -
23/08:00pm 14.9 SSE 17 22 1012.6 - 0.0 - - - - - - -
23/07:30pm 15.0 SSE 17 23 1013.1 - 0.0 - - - - - - -
23/07:00pm 15.1 SSE 16 20 1013.6 - 0.0 - - - - - - -
23/06:30pm 15.1 SSE 16 20 1013.7 - 0.0 - - - - - - -
23/06:00pm 15.3 SSE 16 21 1013.5 - 0.0 - - - - - - -
23/05:30pm 15.5 SSE 17 23 1013.6 - 0.0 - - - - - - -
23/05:00pm 15.8 SSE 17 23 1013.8 - 0.0 - - - - - - -
23/04:30pm 15.7 SSE 17 21 1014.0 - 0.0 - - - - - - -
23/04:00pm 15.9 SSE 15 20 1014.4 - 0.0 - - - - - - -
23/03:30pm 16.4 SE 18 23 1014.7 - 0.0 - - - - - - -
23/03:00pm 16.4 SE 16 21 1015.2 - 0.0 - - - - - - -
23/02:30pm 16.9 SE 18 21 1015.5 - 0.0 - - - - - - -
23/02:00pm 16.7 SE 18 22 1015.9 - 0.0 - - - - - - -
23/01:30pm 16.8 SE 16 20 1016.3 - 0.0 - - - - - - -
23/01:00pm 16.8 SE 18 21 1016.9 - 0.0 - - - - - - -
23/12:30pm 16.6 SE 16 20 1017.5 - 0.0 - - - - - - -
23/12:00pm 16.6 SE 16 20 1018.2 - 0.0 - - - - - - -
23/11:30am 17.0 SE 16 21 1018.8 - 0.0 - - - - - - -
23/11:00am 16.6 SE 16 21 1019.0 - 0.0 - - - - - - -
23/10:30am 16.2 ESE 18 21 1019.2 - 0.0 - - - - - - -
23/10:00am 16.1 SE 17 23 1019.5 - 0.0 - - - - - - -
23/09:30am 15.7 SE 16 21 1019.6 - 0.0 - - - - - - -
23/09:00am 15.8 SE 17 21 1019.9 - 1.4 - - - - - - -
23/08:30am 15.6 SE 16 21 1020.1 - 1.4 - - - - - - -
23/08:00am 15.1 ESE 19 22 1020.1 - 1.4 - - - - - - -
23/07:30am 14.4 ESE 18 23 1020.2 - 1.4 - - - - - - -
23/07:00am 14.3 SSE 14 18 1020.3 - 1.2 - - - - - - -
23/06:30am 14.4 SE 16 21 1020.3 - 1.2 - - - - - - -
23/06:00am 14.0 SSE 13 18 1020.3 - 1.2 - - - - - - -
23/05:30am 13.8 SSE 16 20 1020.2 - 1.2 - - - - - - -
23/05:00am 13.5 SSE 12 15 1020.4 - 1.2 - - - - - - -
23/04:30am 13.2 SSE 11 15 1020.3 - 1.0 - - - - - - -
23/04:00am 13.0 S 13 17 1020.5 - 1.0 - - - - - - -
23/03:30am 12.9 S 10 15 1020.7 - 1.0 - - - - - - -
23/03:00am 13.3 SSE 11 15 1021.0 - 0.6 - - - - - - -
23/02:30am 13.5 SSE 10 14 1021.4 - 0.6 - - - - - - -
23/02:00am 13.3 SSE 12 15 1021.7 - 0.6 - - - - - - -

Other Formats:

Comma delimited format used in spreadsheet applications
http://www.bom.gov.au/fwo/IDT60701/IDT60701.95985.axf

JavaScript Object Notation format (JSON) in row-major order
http://www.bom.gov.au/fwo/IDT60701/IDT60701.95985.json